sensor_id;sensor_type;location;lat;lon;timestamp;P1;durP1;ratioP1;P2;durP2;ratioP2
71464;SDS011;59274;49.874;9.154;2024-01-15T00:01:19;33.67;;;10.30;;
71464;SDS011;59274;49.874;9.154;2024-01-15T00:03:44;34.65;;;10.27;;
71464;SDS011;59274;49.874;9.154;2024-01-15T00:06:10;35.20;;;10.00;;
71464;SDS011;59274;49.874;9.154;2024-01-15T00:08:35;32.87;;;9.47;;
71464;SDS011;59274;49.874;9.154;2024-01-15T00:11:01;28.50;;;10.38;;
71464;SDS011;59274;49.874;9.154;2024-01-15T00:13:26;31.13;;;9.75;;
71464;SDS011;59274;49.874;9.154;2024-01-15T00:15:52;36.13;;;10.77;;
71464;SDS011;59274;49.874;9.154;2024-01-15T00:18:17;33.40;;;9.77;;
71464;SDS011;59274;49.874;9.154;2024-01-15T00:20:43;30.03;;;9.50;;
71464;SDS011;59274;49.874;9.154;2024-01-15T00:23:08;34.88;;;10.43;;
71464;SDS011;59274;49.874;9.154;2024-01-15T00:25:33;35.83;;;10.47;;
71464;SDS011;59274;49.874;9.154;2024-01-15T00:27:59;33.90;;;9.83;;
71464;SDS011;59274;49.874;9.154;2024-01-15T00:30:24;34.43;;;10.00;;
71464;SDS011;59274;49.874;9.154;2024-01-15T00:32:50;32.97;;;10.53;;
71464;SDS011;59274;49.874;9.154;2024-01-15T00:35:15;32.08;;;10.93;;
71464;SDS011;59274;49.874;9.154;2024-01-15T00:37:40;31.07;;;9.80;;
71464;SDS011;59274;49.874;9.154;2024-01-15T00:40:06;30.77;;;10.27;;
71464;SDS011;59274;49.874;9.154;2024-01-15T00:42:33;32.05;;;9.98;;
71464;SDS011;59274;49.874;9.154;2024-01-15T00:44:59;32.00;;;10.45;;
71464;SDS011;59274;49.874;9.154;2024-01-15T00:47:24;30.70;;;9.80;;
71464;SDS011;59274;49.874;9.154;2024-01-15T00:49:50;35.83;;;9.20;;
71464;SDS011;59274;49.874;9.154;2024-01-15T00:52:16;25.90;;;8.48;;
71464;SDS011;59274;49.874;9.154;2024-01-15T00:54:41;27.50;;;8.57;;
71464;SDS011;59274;49.874;9.154;2024-01-15T00:57:07;24.40;;;8.53;;
71464;SDS011;59274;49.874;9.154;2024-01-15T00:59:32;22.40;;;7.82;;
71464;SDS011;59274;49.874;9.154;2024-01-15T01:01:58;28.87;;;8.90;;
71464;SDS011;59274;49.874;9.154;2024-01-15T01:04:23;27.97;;;9.43;;
71464;SDS011;59274;49.874;9.154;2024-01-15T01:06:49;29.70;;;8.65;;
71464;SDS011;59274;49.874;9.154;2024-01-15T01:09:15;30.63;;;9.57;;
71464;SDS011;59274;49.874;9.154;2024-01-15T01:11:40;28.67;;;9.23;;
71464;SDS011;59274;49.874;9.154;2024-01-15T01:14:06;32.28;;;9.43;;
71464;SDS011;59274;49.874;9.154;2024-01-15T01:16:31;27.93;;;9.00;;
71464;SDS011;59274;49.874;9.154;2024-01-15T01:19:03;22.33;;;7.45;;
71464;SDS011;59274;49.874;9.154;2024-01-15T01:21:32;25.77;;;7.80;;
71464;SDS011;59274;49.874;9.154;2024-01-15T01:23:58;26.92;;;8.55;;
71464;SDS011;59274;49.874;9.154;2024-01-15T01:26:27;27.30;;;8.47;;
71464;SDS011;59274;49.874;9.154;2024-01-15T01:28:53;31.38;;;9.90;;
71464;SDS011;59274;49.874;9.154;2024-01-15T01:31:18;28.80;;;9.13;;
71464;SDS011;59274;49.874;9.154;2024-01-15T01:33:44;25.40;;;8.87;;
71464;SDS011;59274;49.874;9.154;2024-01-15T01:36:09;23.98;;;7.88;;
71464;SDS011;59274;49.874;9.154;2024-01-15T01:38:35;29.13;;;8.90;;
71464;SDS011;59274;49.874;9.154;2024-01-15T01:41:02;26.73;;;9.23;;
71464;SDS011;59274;49.874;9.154;2024-01-15T01:43:27;21.97;;;7.70;;
71464;SDS011;59274;49.874;9.154;2024-01-15T01:45:54;21.00;;;7.30;;
71464;SDS011;59274;49.874;9.154;2024-01-15T01:48:23;21.77;;;7.25;;
71464;SDS011;59274;49.874;9.154;2024-01-15T01:50:51;22.55;;;7.78;;
71464;SDS011;59274;49.874;9.154;2024-01-15T01:53:22;19.85;;;7.70;;
71464;SDS011;59274;49.874;9.154;2024-01-15T01:55:48;22.77;;;7.60;;
71464;SDS011;59274;49.874;9.154;2024-01-15T01:58:15;19.53;;;6.37;;
71464;SDS011;59274;49.874;9.154;2024-01-15T02:00:41;19.40;;;7.28;;
71464;SDS011;59274;49.874;9.154;2024-01-15T02:03:07;21.35;;;7.38;;
71464;SDS011;59274;49.874;9.154;2024-01-15T02:05:33;19.90;;;7.10;;
71464;SDS011;59274;49.874;9.154;2024-01-15T02:08:01;24.73;;;7.32;;
71464;SDS011;59274;49.874;9.154;2024-01-15T02:10:26;19.00;;;7.03;;
71464;SDS011;59274;49.874;9.154;2024-01-15T02:12:52;22.45;;;7.28;;
71464;SDS011;59274;49.874;9.154;2024-01-15T02:15:17;21.43;;;7.70;;
71464;SDS011;59274;49.874;9.154;2024-01-15T02:17:56;21.37;;;7.37;;
71464;SDS011;59274;49.874;9.154;2024-01-15T02:20:29;17.67;;;6.88;;
71464;SDS011;59274;49.874;9.154;2024-01-15T02:23:08;18.38;;;7.05;;
71464;SDS011;59274;49.874;9.154;2024-01-15T02:25:38;20.05;;;6.55;;
71464;SDS011;59274;49.874;9.154;2024-01-15T02:28:06;20.40;;;6.57;;
71464;SDS011;59274;49.874;9.154;2024-01-15T02:30:34;26.60;;;7.30;;
71464;SDS011;59274;49.874;9.154;2024-01-15T02:33:03;24.75;;;7.22;;
71464;SDS011;59274;49.874;9.154;2024-01-15T02:35:28;20.95;;;6.95;;
71464;SDS011;59274;49.874;9.154;2024-01-15T02:37:54;20.83;;;7.07;;
71464;SDS011;59274;49.874;9.154;2024-01-15T02:40:19;21.67;;;7.40;;
71464;SDS011;59274;49.874;9.154;2024-01-15T02:42:44;21.40;;;7.00;;
71464;SDS011;59274;49.874;9.154;2024-01-15T02:45:10;23.30;;;7.07;;
71464;SDS011;59274;49.874;9.154;2024-01-15T02:47:35;20.67;;;7.70;;
71464;SDS011;59274;49.874;9.154;2024-01-15T02:50:00;23.45;;;7.28;;
71464;SDS011;59274;49.874;9.154;2024-01-15T02:52:26;20.23;;;6.28;;
71464;SDS011;59274;49.874;9.154;2024-01-15T02:54:52;23.70;;;6.87;;
71464;SDS011;59274;49.874;9.154;2024-01-15T02:57:17;21.37;;;6.90;;
71464;SDS011;59274;49.874;9.154;2024-01-15T02:59:42;18.33;;;7.10;;
71464;SDS011;59274;49.874;9.154;2024-01-15T03:02:08;22.08;;;7.18;;
71464;SDS011;59274;49.874;9.154;2024-01-15T03:04:33;16.73;;;6.37;;
71464;SDS011;59274;49.874;9.154;2024-01-15T03:06:59;21.67;;;6.90;;
71464;SDS011;59274;49.874;9.154;2024-01-15T03:09:24;19.53;;;6.23;;
71464;SDS011;59274;49.874;9.154;2024-01-15T03:11:50;19.93;;;6.90;;
71464;SDS011;59274;49.874;9.154;2024-01-15T03:14:15;17.35;;;6.65;;
71464;SDS011;59274;49.874;9.154;2024-01-15T03:16:41;19.50;;;6.77;;
71464;SDS011;59274;49.874;9.154;2024-01-15T03:19:06;16.25;;;5.88;;
71464;SDS011;59274;49.874;9.154;2024-01-15T03:21:32;21.27;;;7.05;;
71464;SDS011;59274;49.874;9.154;2024-01-15T03:23:57;20.37;;;6.77;;
71464;SDS011;59274;49.874;9.154;2024-01-15T03:26:23;19.93;;;7.30;;
71464;SDS011;59274;49.874;9.154;2024-01-15T03:28:48;22.60;;;6.73;;
71464;SDS011;59274;49.874;9.154;2024-01-15T03:31:13;21.43;;;6.73;;
71464;SDS011;59274;49.874;9.154;2024-01-15T03:33:39;20.38;;;6.63;;
71464;SDS011;59274;49.874;9.154;2024-01-15T03:36:04;20.05;;;7.22;;
71464;SDS011;59274;49.874;9.154;2024-01-15T03:38:30;22.93;;;7.20;;
71464;SDS011;59274;49.874;9.154;2024-01-15T03:40:55;26.20;;;7.37;;
71464;SDS011;59274;49.874;9.154;2024-01-15T03:43:21;23.40;;;7.73;;
71464;SDS011;59274;49.874;9.154;2024-01-15T03:45:46;20.55;;;5.82;;
71464;SDS011;59274;49.874;9.154;2024-01-15T03:48:11;21.83;;;6.63;;
71464;SDS011;59274;49.874;9.154;2024-01-15T03:50:37;17.07;;;6.73;;
71464;SDS011;59274;49.874;9.154;2024-01-15T03:53:02;18.63;;;7.13;;
71464;SDS011;59274;49.874;9.154;2024-01-15T03:55:28;16.88;;;6.25;;
71464;SDS011;59274;49.874;9.154;2024-01-15T03:57:53;20.92;;;6.97;;
71464;SDS011;59274;49.874;9.154;2024-01-15T04:00:19;20.67;;;6.73;;
71464;SDS011;59274;49.874;9.154;2024-01-15T04:02:44;24.57;;;7.60;;
71464;SDS011;59274;49.874;9.154;2024-01-15T04:05:10;22.47;;;7.00;;
71464;SDS011;59274;49.874;9.154;2024-01-15T04:07:36;17.73;;;5.63;;
71464;SDS011;59274;49.874;9.154;2024-01-15T04:10:01;21.90;;;7.73;;
71464;SDS011;59274;49.874;9.154;2024-01-15T04:12:28;20.27;;;6.20;;
71464;SDS011;59274;49.874;9.154;2024-01-15T04:14:53;18.87;;;6.63;;
71464;SDS011;59274;49.874;9.154;2024-01-15T04:17:18;23.53;;;6.83;;
71464;SDS011;59274;49.874;9.154;2024-01-15T04:19:44;16.40;;;6.40;;
71464;SDS011;59274;49.874;9.154;2024-01-15T04:22:10;20.07;;;6.83;;
71464;SDS011;59274;49.874;9.154;2024-01-15T04:24:35;21.37;;;6.30;;
71464;SDS011;59274;49.874;9.154;2024-01-15T04:27:00;22.00;;;6.60;;
71464;SDS011;59274;49.874;9.154;2024-01-15T04:29:26;17.43;;;5.80;;
71464;SDS011;59274;49.874;9.154;2024-01-15T04:31:52;19.50;;;6.22;;
71464;SDS011;59274;49.874;9.154;2024-01-15T04:34:18;20.92;;;7.43;;
71464;SDS011;59274;49.874;9.154;2024-01-15T04:36:43;17.17;;;5.85;;
71464;SDS011;59274;49.874;9.154;2024-01-15T04:39:09;21.95;;;6.45;;
71464;SDS011;59274;49.874;9.154;2024-01-15T04:41:36;18.75;;;6.10;;
71464;SDS011;59274;49.874;9.154;2024-01-15T04:44:02;20.70;;;6.27;;
71464;SDS011;59274;49.874;9.154;2024-01-15T04:46:27;21.43;;;7.13;;
71464;SDS011;59274;49.874;9.154;2024-01-15T04:48:53;18.40;;;6.45;;
71464;SDS011;59274;49.874;9.154;2024-01-15T04:51:18;21.98;;;5.97;;
71464;SDS011;59274;49.874;9.154;2024-01-15T04:53:44;19.80;;;6.73;;
71464;SDS011;59274;49.874;9.154;2024-01-15T04:56:09;23.10;;;6.85;;
71464;SDS011;59274;49.874;9.154;2024-01-15T04:58:35;17.63;;;6.22;;
71464;SDS011;59274;49.874;9.154;2024-01-15T05:01:00;20.00;;;6.57;;
71464;SDS011;59274;49.874;9.154;2024-01-15T05:03:26;20.70;;;6.30;;
71464;SDS011;59274;49.874;9.154;2024-01-15T05:05:51;23.40;;;6.87;;
71464;SDS011;59274;49.874;9.154;2024-01-15T05:08:16;17.87;;;6.10;;
71464;SDS011;59274;49.874;9.154;2024-01-15T05:10:42;20.73;;;7.07;;
71464;SDS011;59274;49.874;9.154;2024-01-15T05:13:07;20.70;;;5.80;;
71464;SDS011;59274;49.874;9.154;2024-01-15T05:15:33;15.77;;;6.07;;
71464;SDS011;59274;49.874;9.154;2024-01-15T05:18:01;17.17;;;5.88;;
71464;SDS011;59274;49.874;9.154;2024-01-15T05:20:27;17.83;;;6.17;;
71464;SDS011;59274;49.874;9.154;2024-01-15T05:22:52;16.50;;;6.23;;
71464;SDS011;59274;49.874;9.154;2024-01-15T05:25:17;19.13;;;6.75;;
71464;SDS011;59274;49.874;9.154;2024-01-15T05:27:43;18.33;;;5.60;;
71464;SDS011;59274;49.874;9.154;2024-01-15T05:30:09;21.97;;;6.47;;
71464;SDS011;59274;49.874;9.154;2024-01-15T05:32:35;16.75;;;5.47;;
71464;SDS011;59274;49.874;9.154;2024-01-15T05:35:00;17.73;;;6.00;;
71464;SDS011;59274;49.874;9.154;2024-01-15T05:37:25;18.83;;;6.73;;
71464;SDS011;59274;49.874;9.154;2024-01-15T05:39:51;15.47;;;5.67;;
71464;SDS011;59274;49.874;9.154;2024-01-15T05:42:16;18.97;;;6.80;;
71464;SDS011;59274;49.874;9.154;2024-01-15T05:44:41;20.70;;;6.30;;
71464;SDS011;59274;49.874;9.154;2024-01-15T05:47:07;18.80;;;6.43;;
71464;SDS011;59274;49.874;9.154;2024-01-15T05:49:33;16.63;;;5.67;;
71464;SDS011;59274;49.874;9.154;2024-01-15T05:51:58;16.93;;;6.50;;
71464;SDS011;59274;49.874;9.154;2024-01-15T05:54:23;18.23;;;6.95;;
71464;SDS011;59274;49.874;9.154;2024-01-15T05:56:49;21.23;;;7.70;;
71464;SDS011;59274;49.874;9.154;2024-01-15T05:59:15;21.60;;;7.77;;
71464;SDS011;59274;49.874;9.154;2024-01-15T06:01:40;21.70;;;6.57;;
71464;SDS011;59274;49.874;9.154;2024-01-15T06:04:05;18.63;;;6.60;;
71464;SDS011;59274;49.874;9.154;2024-01-15T06:06:31;20.00;;;6.10;;
71464;SDS011;59274;49.874;9.154;2024-01-15T06:08:58;18.92;;;6.05;;
71464;SDS011;59274;49.874;9.154;2024-01-15T06:11:30;21.33;;;7.13;;
71464;SDS011;59274;49.874;9.154;2024-01-15T06:13:56;18.73;;;6.20;;
71464;SDS011;59274;49.874;9.154;2024-01-15T06:16:22;21.37;;;6.50;;
71464;SDS011;59274;49.874;9.154;2024-01-15T06:18:49;23.47;;;7.10;;
71464;SDS011;59274;49.874;9.154;2024-01-15T06:21:15;17.50;;;6.15;;
71464;SDS011;59274;49.874;9.154;2024-01-15T06:23:41;17.95;;;5.57;;
71464;SDS011;59274;49.874;9.154;2024-01-15T06:26:07;17.30;;;6.33;;
71464;SDS011;59274;49.874;9.154;2024-01-15T06:28:32;15.90;;;6.32;;
71464;SDS011;59274;49.874;9.154;2024-01-15T06:30:57;18.38;;;6.88;;
71464;SDS011;59274;49.874;9.154;2024-01-15T06:33:23;18.37;;;6.03;;
71464;SDS011;59274;49.874;9.154;2024-01-15T06:35:49;17.92;;;6.15;;
71464;SDS011;59274;49.874;9.154;2024-01-15T06:41:40;18.58;;;6.28;;
71464;SDS011;59274;49.874;9.154;2024-01-15T06:44:09;18.52;;;6.72;;
71464;SDS011;59274;49.874;9.154;2024-01-15T06:52:46;17.77;;;5.93;;
71464;SDS011;59274;49.874;9.154;2024-01-15T06:55:11;21.70;;;6.15;;
71464;SDS011;59274;49.874;9.154;2024-01-15T06:57:37;16.77;;;5.55;;
71464;SDS011;59274;49.874;9.154;2024-01-15T07:00:02;15.73;;;4.97;;
71464;SDS011;59274;49.874;9.154;2024-01-15T07:02:32;18.85;;;5.75;;
71464;SDS011;59274;49.874;9.154;2024-01-15T07:04:58;20.10;;;6.07;;
71464;SDS011;59274;49.874;9.154;2024-01-15T07:07:23;19.00;;;5.63;;
71464;SDS011;59274;49.874;9.154;2024-01-15T07:09:48;17.07;;;6.20;;
71464;SDS011;59274;49.874;9.154;2024-01-15T07:12:17;19.40;;;6.72;;
71464;SDS011;59274;49.874;9.154;2024-01-15T07:14:42;15.37;;;5.93;;
71464;SDS011;59274;49.874;9.154;2024-01-15T07:17:08;18.33;;;6.30;;
71464;SDS011;59274;49.874;9.154;2024-01-15T07:19:33;18.13;;;6.20;;
71464;SDS011;59274;49.874;9.154;2024-01-15T07:21:58;18.90;;;6.67;;
71464;SDS011;59274;49.874;9.154;2024-01-15T07:24:24;17.90;;;6.37;;
71464;SDS011;59274;49.874;9.154;2024-01-15T07:26:49;18.50;;;6.23;;
71464;SDS011;59274;49.874;9.154;2024-01-15T07:29:14;24.53;;;8.20;;
71464;SDS011;59274;49.874;9.154;2024-01-15T07:31:40;19.63;;;6.80;;
71464;SDS011;59274;49.874;9.154;2024-01-15T07:34:05;19.77;;;6.73;;
71464;SDS011;59274;49.874;9.154;2024-01-15T07:36:31;21.67;;;7.00;;
71464;SDS011;59274;49.874;9.154;2024-01-15T07:38:56;18.00;;;7.38;;
71464;SDS011;59274;49.874;9.154;2024-01-15T07:41:22;18.83;;;6.87;;
71464;SDS011;59274;49.874;9.154;2024-01-15T07:43:48;19.45;;;6.55;;
71464;SDS011;59274;49.874;9.154;2024-01-15T07:46:13;19.53;;;6.03;;
71464;SDS011;59274;49.874;9.154;2024-01-15T07:48:39;15.90;;;6.00;;
71464;SDS011;59274;49.874;9.154;2024-01-15T07:51:04;20.93;;;7.03;;
71464;SDS011;59274;49.874;9.154;2024-01-15T07:53:30;20.07;;;6.47;;
71464;SDS011;59274;49.874;9.154;2024-01-15T07:55:55;18.42;;;6.13;;
71464;SDS011;59274;49.874;9.154;2024-01-15T07:58:20;21.27;;;6.07;;
71464;SDS011;59274;49.874;9.154;2024-01-15T08:00:46;18.10;;;6.27;;
71464;SDS011;59274;49.874;9.154;2024-01-15T08:03:11;20.23;;;7.67;;
71464;SDS011;59274;49.874;9.154;2024-01-15T08:05:38;19.60;;;6.70;;
71464;SDS011;59274;49.874;9.154;2024-01-15T08:08:03;18.80;;;7.47;;
71464;SDS011;59274;49.874;9.154;2024-01-15T08:10:29;19.90;;;6.57;;
71464;SDS011;59274;49.874;9.154;2024-01-15T08:12:54;17.90;;;6.73;;
71464;SDS011;59274;49.874;9.154;2024-01-15T08:15:20;16.50;;;6.63;;
71464;SDS011;59274;49.874;9.154;2024-01-15T08:17:45;16.67;;;6.13;;
71464;SDS011;59274;49.874;9.154;2024-01-15T08:20:11;15.27;;;6.03;;
71464;SDS011;59274;49.874;9.154;2024-01-15T08:22:38;18.23;;;6.43;;
71464;SDS011;59274;49.874;9.154;2024-01-15T08:25:03;17.10;;;6.25;;
71464;SDS011;59274;49.874;9.154;2024-01-15T08:27:29;19.88;;;6.95;;
71464;SDS011;59274;49.874;9.154;2024-01-15T08:29:55;17.40;;;6.17;;
71464;SDS011;59274;49.874;9.154;2024-01-15T08:32:20;16.80;;;6.23;;
71464;SDS011;59274;49.874;9.154;2024-01-15T08:34:46;17.08;;;6.38;;
71464;SDS011;59274;49.874;9.154;2024-01-15T08:37:14;17.83;;;6.70;;
71464;SDS011;59274;49.874;9.154;2024-01-15T08:39:39;15.90;;;5.82;;
71464;SDS011;59274;49.874;9.154;2024-01-15T08:42:05;19.40;;;6.60;;
71464;SDS011;59274;49.874;9.154;2024-01-15T08:44:30;19.20;;;7.20;;
71464;SDS011;59274;49.874;9.154;2024-01-15T08:46:56;18.83;;;6.80;;
71464;SDS011;59274;49.874;9.154;2024-01-15T08:49:21;19.55;;;6.47;;
71464;SDS011;59274;49.874;9.154;2024-01-15T08:51:46;21.48;;;7.00;;
71464;SDS011;59274;49.874;9.154;2024-01-15T08:54:13;18.53;;;5.80;;
71464;SDS011;59274;49.874;9.154;2024-01-15T08:56:38;15.32;;;6.43;;
71464;SDS011;59274;49.874;9.154;2024-01-15T08:59:05;17.77;;;6.07;;
71464;SDS011;59274;49.874;9.154;2024-01-15T09:01:30;19.25;;;6.70;;
71464;SDS011;59274;49.874;9.154;2024-01-15T09:03:56;18.13;;;6.83;;
71464;SDS011;59274;49.874;9.154;2024-01-15T09:06:21;17.57;;;6.47;;
71464;SDS011;59274;49.874;9.154;2024-01-15T09:08:46;14.80;;;6.30;;
71464;SDS011;59274;49.874;9.154;2024-01-15T09:11:12;22.27;;;6.40;;
71464;SDS011;59274;49.874;9.154;2024-01-15T09:13:37;16.00;;;6.15;;
71464;SDS011;59274;49.874;9.154;2024-01-15T09:16:03;18.77;;;6.57;;
71464;SDS011;59274;49.874;9.154;2024-01-15T09:18:29;18.15;;;6.68;;
71464;SDS011;59274;49.874;9.154;2024-01-15T09:20:55;18.77;;;6.60;;
71464;SDS011;59274;49.874;9.154;2024-01-15T09:23:20;19.33;;;7.00;;
71464;SDS011;59274;49.874;9.154;2024-01-15T09:25:46;16.75;;;6.53;;
71464;SDS011;59274;49.874;9.154;2024-01-15T09:28:12;17.80;;;6.65;;
71464;SDS011;59274;49.874;9.154;2024-01-15T09:30:38;16.27;;;5.47;;
71464;SDS011;59274;49.874;9.154;2024-01-15T09:33:04;17.17;;;5.93;;
71464;SDS011;59274;49.874;9.154;2024-01-15T09:35:30;15.65;;;5.80;;
71464;SDS011;59274;49.874;9.154;2024-01-15T09:37:55;16.83;;;6.20;;
71464;SDS011;59274;49.874;9.154;2024-01-15T09:40:21;17.90;;;6.50;;
71464;SDS011;59274;49.874;9.154;2024-01-15T09:42:46;15.20;;;6.13;;
71464;SDS011;59274;49.874;9.154;2024-01-15T09:45:12;17.00;;;5.72;;
71464;SDS011;59274;49.874;9.154;2024-01-15T09:47:38;15.93;;;5.30;;
71464;SDS011;59274;49.874;9.154;2024-01-15T09:50:05;15.25;;;5.90;;
71464;SDS011;59274;49.874;9.154;2024-01-15T09:52:31;16.10;;;6.25;;
71464;SDS011;59274;49.874;9.154;2024-01-15T09:54:58;17.30;;;6.22;;
71464;SDS011;59274;49.874;9.154;2024-01-15T09:57:26;15.53;;;6.30;;
71464;SDS011;59274;49.874;9.154;2024-01-15T09:59:51;15.95;;;5.65;;
71464;SDS011;59274;49.874;9.154;2024-01-15T10:02:17;14.68;;;5.97;;
71464;SDS011;59274;49.874;9.154;2024-01-15T10:04:43;16.63;;;6.03;;
71464;SDS011;59274;49.874;9.154;2024-01-15T10:07:09;14.32;;;6.18;;
71464;SDS011;59274;49.874;9.154;2024-01-15T10:09:41;14.13;;;5.83;;
71464;SDS011;59274;49.874;9.154;2024-01-15T10:12:07;14.15;;;6.20;;
71464;SDS011;59274;49.874;9.154;2024-01-15T10:14:34;16.60;;;6.40;;
71464;SDS011;59274;49.874;9.154;2024-01-15T10:16:59;15.23;;;6.20;;
71464;SDS011;59274;49.874;9.154;2024-01-15T10:19:25;16.27;;;6.43;;
71464;SDS011;59274;49.874;9.154;2024-01-15T10:21:50;16.27;;;5.73;;
71464;SDS011;59274;49.874;9.154;2024-01-15T10:24:15;15.88;;;6.57;;
71464;SDS011;59274;49.874;9.154;2024-01-15T10:26:42;17.75;;;6.50;;
71464;SDS011;59274;49.874;9.154;2024-01-15T10:29:08;17.92;;;7.40;;
71464;SDS011;59274;49.874;9.154;2024-01-15T10:31:33;15.67;;;6.20;;
71464;SDS011;59274;49.874;9.154;2024-01-15T10:34:09;17.13;;;6.70;;
71464;SDS011;59274;49.874;9.154;2024-01-15T10:36:40;19.83;;;6.65;;
71464;SDS011;59274;49.874;9.154;2024-01-15T10:39:06;16.10;;;6.63;;
71464;SDS011;59274;49.874;9.154;2024-01-15T10:41:32;18.33;;;6.57;;
71464;SDS011;59274;49.874;9.154;2024-01-15T10:43:58;19.65;;;7.40;;
71464;SDS011;59274;49.874;9.154;2024-01-15T10:46:24;17.27;;;7.20;;
71464;SDS011;59274;49.874;9.154;2024-01-15T10:48:50;17.17;;;7.05;;
71464;SDS011;59274;49.874;9.154;2024-01-15T10:51:16;18.03;;;7.00;;
71464;SDS011;59274;49.874;9.154;2024-01-15T10:53:42;16.00;;;6.30;;
71464;SDS011;59274;49.874;9.154;2024-01-15T10:56:07;17.93;;;7.23;;
71464;SDS011;59274;49.874;9.154;2024-01-15T10:58:36;16.35;;;6.55;;
71464;SDS011;59274;49.874;9.154;2024-01-15T11:01:04;17.30;;;6.78;;
71464;SDS011;59274;49.874;9.154;2024-01-15T11:03:30;17.50;;;7.03;;
71464;SDS011;59274;49.874;9.154;2024-01-15T11:05:55;17.85;;;8.02;;
71464;SDS011;59274;49.874;9.154;2024-01-15T11:08:21;16.53;;;7.20;;
71464;SDS011;59274;49.874;9.154;2024-01-15T11:10:53;16.10;;;7.13;;
71464;SDS011;59274;49.874;9.154;2024-01-15T11:13:39;20.02;;;7.13;;
71464;SDS011;59274;49.874;9.154;2024-01-15T11:16:09;17.40;;;7.85;;
71464;SDS011;59274;49.874;9.154;2024-01-15T11:18:45;17.95;;;7.10;;
71464;SDS011;59274;49.874;9.154;2024-01-15T11:21:27;17.70;;;7.40;;
71464;SDS011;59274;49.874;9.154;2024-01-15T11:23:58;16.93;;;6.53;;
71464;SDS011;59274;49.874;9.154;2024-01-15T11:29:06;19.52;;;7.30;;
71464;SDS011;59274;49.874;9.154;2024-01-15T11:34:08;20.52;;;8.10;;
71464;SDS011;59274;49.874;9.154;2024-01-15T11:42:03;15.88;;;6.00;;
71464;SDS011;59274;49.874;9.154;2024-01-15T11:44:29;17.13;;;6.82;;
71464;SDS011;59274;49.874;9.154;2024-01-15T11:47:05;15.55;;;6.25;;
71464;SDS011;59274;49.874;9.154;2024-01-15T11:52:11;15.10;;;6.78;;
71464;SDS011;59274;49.874;9.154;2024-01-15T11:54:40;15.52;;;6.88;;
71464;SDS011;59274;49.874;9.154;2024-01-15T11:57:13;13.88;;;6.35;;
71464;SDS011;59274;49.874;9.154;2024-01-15T11:59:47;15.53;;;6.47;;
71464;SDS011;59274;49.874;9.154;2024-01-15T12:02:13;14.07;;;5.93;;
71464;SDS011;59274;49.874;9.154;2024-01-15T12:04:38;17.25;;;7.20;;
71464;SDS011;59274;49.874;9.154;2024-01-15T12:07:05;14.65;;;5.95;;
71464;SDS011;59274;49.874;9.154;2024-01-15T12:09:30;15.83;;;6.90;;
71464;SDS011;59274;49.874;9.154;2024-01-15T12:11:57;13.90;;;6.23;;
71464;SDS011;59274;49.874;9.154;2024-01-15T12:14:32;13.27;;;5.57;;
71464;SDS011;59274;49.874;9.154;2024-01-15T12:16:59;15.20;;;6.07;;
71464;SDS011;59274;49.874;9.154;2024-01-15T12:19:25;13.93;;;6.07;;
71464;SDS011;59274;49.874;9.154;2024-01-15T12:21:51;13.93;;;6.33;;
71464;SDS011;59274;49.874;9.154;2024-01-15T12:24:17;14.85;;;6.47;;
71464;SDS011;59274;49.874;9.154;2024-01-15T12:26:42;14.15;;;6.05;;
71464;SDS011;59274;49.874;9.154;2024-01-15T12:29:08;14.17;;;6.03;;
71464;SDS011;59274;49.874;9.154;2024-01-15T12:31:36;16.15;;;5.95;;
71464;SDS011;59274;49.874;9.154;2024-01-15T12:34:01;16.43;;;6.03;;
71464;SDS011;59274;49.874;9.154;2024-01-15T12:36:27;15.23;;;6.38;;
71464;SDS011;59274;49.874;9.154;2024-01-15T12:38:58;13.50;;;6.07;;
71464;SDS011;59274;49.874;9.154;2024-01-15T12:41:24;14.00;;;5.63;;
71464;SDS011;59274;49.874;9.154;2024-01-15T12:43:50;13.57;;;5.70;;
71464;SDS011;59274;49.874;9.154;2024-01-15T12:46:16;13.77;;;5.13;;
71464;SDS011;59274;49.874;9.154;2024-01-15T12:48:41;14.83;;;5.63;;
71464;SDS011;59274;49.874;9.154;2024-01-15T12:51:07;13.18;;;6.03;;
71464;SDS011;59274;49.874;9.154;2024-01-15T12:53:33;13.57;;;5.57;;
71464;SDS011;59274;49.874;9.154;2024-01-15T12:55:58;13.90;;;5.32;;
71464;SDS011;59274;49.874;9.154;2024-01-15T12:58:24;13.47;;;5.77;;
71464;SDS011;59274;49.874;9.154;2024-01-15T13:00:49;12.80;;;5.50;;
71464;SDS011;59274;49.874;9.154;2024-01-15T13:03:15;13.83;;;5.77;;
71464;SDS011;59274;49.874;9.154;2024-01-15T13:05:40;12.32;;;5.13;;
71464;SDS011;59274;49.874;9.154;2024-01-15T13:08:06;14.93;;;6.18;;
71464;SDS011;59274;49.874;9.154;2024-01-15T13:10:32;12.88;;;5.57;;
71464;SDS011;59274;49.874;9.154;2024-01-15T13:12:57;11.77;;;5.07;;
71464;SDS011;59274;49.874;9.154;2024-01-15T13:15:23;15.53;;;5.87;;
71464;SDS011;59274;49.874;9.154;2024-01-15T13:17:48;13.43;;;5.67;;
71464;SDS011;59274;49.874;9.154;2024-01-15T13:20:14;12.02;;;5.22;;
71464;SDS011;59274;49.874;9.154;2024-01-15T13:22:39;14.43;;;5.97;;
71464;SDS011;59274;49.874;9.154;2024-01-15T13:25:05;13.90;;;6.03;;
71464;SDS011;59274;49.874;9.154;2024-01-15T13:27:32;14.55;;;6.32;;
71464;SDS011;59274;49.874;9.154;2024-01-15T13:30:00;16.80;;;6.68;;
71464;SDS011;59274;49.874;9.154;2024-01-15T13:32:28;14.23;;;6.53;;
71464;SDS011;59274;49.874;9.154;2024-01-15T13:34:55;13.32;;;5.55;;
71464;SDS011;59274;49.874;9.154;2024-01-15T13:37:21;17.65;;;6.80;;
71464;SDS011;59274;49.874;9.154;2024-01-15T13:39:49;15.95;;;7.45;;
71464;SDS011;59274;49.874;9.154;2024-01-15T13:42:16;15.47;;;5.77;;
71464;SDS011;59274;49.874;9.154;2024-01-15T13:44:42;12.55;;;5.32;;
71464;SDS011;59274;49.874;9.154;2024-01-15T13:47:07;13.77;;;5.70;;
71464;SDS011;59274;49.874;9.154;2024-01-15T13:49:34;12.07;;;4.65;;
71464;SDS011;59274;49.874;9.154;2024-01-15T13:52:01;15.32;;;6.00;;
71464;SDS011;59274;49.874;9.154;2024-01-15T13:54:29;13.53;;;5.67;;
71464;SDS011;59274;49.874;9.154;2024-01-15T13:56:55;12.93;;;5.57;;
71464;SDS011;59274;49.874;9.154;2024-01-15T13:59:21;13.18;;;5.18;;
71464;SDS011;59274;49.874;9.154;2024-01-15T14:01:46;14.97;;;5.13;;
71464;SDS011;59274;49.874;9.154;2024-01-15T14:04:12;13.02;;;5.63;;
71464;SDS011;59274;49.874;9.154;2024-01-15T14:06:39;15.97;;;5.47;;
71464;SDS011;59274;49.874;9.154;2024-01-15T14:09:04;14.77;;;5.25;;
71464;SDS011;59274;49.874;9.154;2024-01-15T14:11:30;11.70;;;5.20;;
71464;SDS011;59274;49.874;9.154;2024-01-15T14:13:56;14.02;;;5.72;;
71464;SDS011;59274;49.874;9.154;2024-01-15T14:16:22;12.67;;;4.80;;
71464;SDS011;59274;49.874;9.154;2024-01-15T14:18:47;14.70;;;5.57;;
71464;SDS011;59274;49.874;9.154;2024-01-15T14:21:13;13.90;;;5.20;;
71464;SDS011;59274;49.874;9.154;2024-01-15T14:23:38;14.03;;;5.10;;
71464;SDS011;59274;49.874;9.154;2024-01-15T14:26:03;11.17;;;4.67;;
71464;SDS011;59274;49.874;9.154;2024-01-15T14:28:29;13.73;;;6.10;;
71464;SDS011;59274;49.874;9.154;2024-01-15T14:30:54;12.23;;;5.22;;
71464;SDS011;59274;49.874;9.154;2024-01-15T14:33:23;11.02;;;5.32;;
71464;SDS011;59274;49.874;9.154;2024-01-15T14:35:48;11.27;;;4.70;;
71464;SDS011;59274;49.874;9.154;2024-01-15T14:38:14;12.00;;;4.73;;
71464;SDS011;59274;49.874;9.154;2024-01-15T14:40:39;12.10;;;4.33;;
71464;SDS011;59274;49.874;9.154;2024-01-15T14:43:05;11.27;;;4.43;;
71464;SDS011;59274;49.874;9.154;2024-01-15T14:45:31;11.10;;;4.15;;
71464;SDS011;59274;49.874;9.154;2024-01-15T14:47:56;11.80;;;4.70;;
71464;SDS011;59274;49.874;9.154;2024-01-15T14:50:23;11.32;;;4.60;;